Nineveh, New York
Current Conditions -  °F | °C
As of 9:53 AM on Thursday 23 Oct 2014 (Local Time) from KBGM Reporting Station
Overcast Overcast  
Wind Chill: 34°   Ceiling: 800
Heat Index: 42°   Visibility: 10mi
Dew Point: 39°   Wind: 18mph
Humidity: 89%   Direction: 340°NNW
Pressure: 29.9"   Gusts: 24mph
Location:  42.19°N, 75.6°W
Report Text: KBGM 231353Z 34016G21KT 10SM OVC008 06/04 A2990 RMK AO2 SLP135 T00560039
Loading
Personal Weather Stations






























Interactive Weather Map
Tropical Storm Tracking
New forecast layout! Learn more

10-Day Weather Forecast

Advertisements
Track Severe Weather on mobile